首页
METAR-TAF:

METAR-TAF

机场 :

Leesburg, 佛罗里达州, 美国

纬度: 28-49-21N, 经度: 081-48-32W, 海拔: 24米

当前天气观测

该预报发布于32分钟前的16:53 UTC
风速13节,风向西转西北,有时为17节阵风
温度 20°C
湿度 64%
气压 1014 hPa
能見度: 16.1公里
天空无云

METAR: KLEE 031653Z 30013G17KT 10SM CLR 20/13 A2995 RMK AO2 SLP140 T02000128

时间: 12:25 (17:25 UTC)

预报

该预报发布于5小时和56分钟前的11:29 UTC
预报有效从03日的 12点(UTC)到 04日的 12点(UTC)
风速10节,风向西转西南
能見度: 10公里
散云层高于800英尺
多云层高于3000英尺
多云层高于10000英尺
从 03日的 1300点(UTC)
风速12节,风向西北
能見度: 10公里
散云层高于1500英尺
多云层高于3000英尺
从 03日的 1500点(UTC)
风速8节,风向西北
能見度: 10公里
散云层高于3000英尺
多云层高于12000英尺
从 03日的 1800点(UTC)
风速8节,风向北转西北
能見度: 10公里
散云层高于3500英尺
多云层高于25000英尺
从 03日的 2300点(UTC)
风速5节,风向
能見度: 10公里
散云层高于25000英尺

TAF: KLEE 031129Z 0312/0412 25010KT P6SM SCT008 BKN030 BKN100 FM031300 31012KT P6SM SCT015 BKN030 FM031500 32008KT P6SM SCT030 BKN120 FM031800 34008KT P6SM SCT035 BKN250 FM032300 01005KT P6SM SCT250

超过4000个机场的气象观测和天气预报(METAR&TAF报告)。

可查询的气象台以黄色和红色小点在地图上表示。

将鼠标移到小点上方,可查看气象台名称。

然后点击查看天气观测和预报。

如需切换地图:点击带黑十字的绿色按钮放大地图;点击带横线的绿色按钮缩小地图;或者点击绿色箭头查看邻近地区的地图。


METAR-TAF: